createdAt,value
2019-02-18T00:00:49.882Z,27.30
2019-02-18T00:03:18.990Z,25.30
2019-02-18T00:05:48.364Z,25.67
2019-02-18T00:08:17.654Z,24.70
2019-02-18T00:10:46.822Z,23.43
2019-02-18T00:13:16.642Z,24.67
2019-02-18T00:15:45.880Z,20.77
2019-02-18T00:18:15.850Z,22.70
2019-02-18T00:20:44.812Z,21.60
2019-02-18T00:23:14.309Z,22.43
2019-02-18T00:25:43.162Z,24.97
2019-02-18T00:28:12.261Z,26.87
2019-02-18T00:30:41.427Z,22.90
2019-02-18T00:33:10.619Z,23.90
2019-02-18T00:35:39.757Z,24.30
2019-02-18T00:38:09.675Z,23.43
2019-02-18T00:40:39.105Z,23.73
2019-02-18T00:43:09.192Z,24.90
2019-02-18T00:45:39.111Z,24.80
2019-02-18T00:48:08.292Z,24.17
2019-02-18T00:50:39.605Z,24.80
2019-02-18T00:53:09.688Z,26.43
2019-02-18T00:55:39.563Z,23.10
2019-02-18T00:58:10.164Z,24.10
2019-02-18T01:00:39.962Z,25.30
2019-02-18T01:03:09.526Z,25.97
2019-02-18T01:05:39.479Z,24.70
2019-02-18T01:08:09.973Z,23.13
2019-02-18T01:10:40.275Z,24.97
2019-02-18T01:13:10.331Z,24.63
2019-02-18T01:15:39.962Z,23.80
2019-02-18T01:18:10.313Z,22.83
2019-02-18T01:20:40.068Z,25.27
2019-02-18T01:23:10.428Z,22.87
2019-02-18T01:25:40.094Z,24.40
2019-02-18T01:28:10.402Z,24.80
2019-02-18T01:30:40.868Z,24.10
2019-02-18T01:33:11.696Z,24.10
2019-02-18T01:35:41.964Z,22.80
2019-02-18T01:38:11.928Z,24.73
2019-02-18T01:40:42.073Z,24.27
2019-02-18T01:43:12.318Z,25.50
2019-02-18T01:45:41.779Z,22.60
2019-02-18T01:48:11.375Z,24.00
2019-02-18T01:50:40.508Z,21.50
2019-02-18T01:53:10.064Z,23.03
2019-02-18T01:55:40.378Z,19.43
2019-02-18T01:58:09.902Z,22.53
2019-02-18T02:00:39.286Z,21.90
2019-02-18T02:03:08.658Z,19.47
2019-02-18T02:05:38.248Z,21.30
2019-02-18T02:08:08.105Z,21.70
2019-02-18T02:10:38.155Z,20.40
2019-02-18T02:13:30.408Z,21.17
2019-02-18T02:16:00.643Z,19.93
2019-02-18T02:18:30.317Z,21.43
2019-02-18T02:21:00.203Z,21.37
2019-02-18T02:23:29.898Z,21.17
2019-02-18T02:26:00.116Z,21.67
2019-02-18T02:28:29.971Z,21.67
2019-02-18T02:31:00.990Z,22.40
2019-02-18T02:33:30.851Z,23.40
2019-02-18T02:36:01.211Z,21.07
2019-02-18T02:38:31.047Z,24.30
2019-02-18T02:41:00.233Z,25.23
2019-02-18T02:43:29.774Z,23.70
2019-02-18T02:45:59.302Z,22.73
2019-02-18T02:48:28.614Z,23.50
2019-02-18T02:50:58.668Z,22.80
2019-02-18T02:53:28.612Z,22.70
2019-02-18T02:55:58.793Z,21.30
2019-02-18T02:58:28.774Z,22.30
2019-02-18T03:00:58.295Z,22.80
2019-02-18T03:03:27.493Z,23.10
2019-02-18T03:05:57.015Z,22.03
2019-02-18T03:08:26.715Z,22.40
2019-02-18T03:10:55.690Z,21.47
2019-02-18T03:13:25.253Z,21.10
2019-02-18T03:15:54.551Z,20.60
2019-02-18T03:18:24.380Z,21.50
2019-02-18T03:20:53.941Z,21.87
2019-02-18T03:23:23.306Z,27.40
2019-02-18T03:25:52.874Z,22.07
2019-02-18T03:28:40.121Z,22.03
2019-02-18T03:31:12.466Z,22.10
2019-02-18T03:33:46.545Z,21.70
2019-02-18T03:36:15.600Z,21.87
2019-02-18T03:38:44.852Z,19.90
2019-02-18T03:41:14.840Z,23.80
2019-02-18T03:43:43.793Z,23.17
2019-02-18T03:46:13.137Z,23.30
2019-02-18T03:48:43.810Z,24.40
2019-02-18T03:51:13.117Z,22.67
2019-02-18T03:53:43.455Z,23.27
2019-02-18T03:56:13.230Z,21.30
2019-02-18T03:58:43.403Z,22.50
2019-02-18T04:01:13.584Z,22.90
2019-02-18T04:03:43.269Z,21.97
2019-02-18T04:06:12.588Z,21.10
2019-02-18T04:08:43.400Z,22.67
2019-02-18T04:11:14.040Z,23.50
2019-02-18T04:13:43.425Z,21.77
2019-02-18T04:16:12.906Z,23.07
2019-02-18T04:18:42.929Z,22.37
2019-02-18T04:21:12.289Z,22.73
2019-02-18T04:23:41.552Z,22.03
2019-02-18T04:26:11.355Z,23.23
2019-02-18T04:28:40.725Z,21.40
2019-02-18T04:31:10.693Z,22.30
2019-02-18T04:33:41.232Z,21.10
2019-02-18T04:36:10.264Z,21.90
2019-02-18T04:38:39.930Z,23.20
2019-02-18T04:41:09.922Z,22.50
2019-02-18T04:43:41.989Z,23.83
2019-02-18T04:46:11.094Z,21.13
2019-02-18T04:48:41.608Z,20.07
2019-02-18T04:51:11.272Z,23.20
2019-02-18T04:53:40.951Z,22.87
2019-02-18T04:56:11.241Z,22.27
2019-02-18T04:58:40.591Z,23.07
2019-02-18T05:01:09.806Z,21.87
2019-02-18T05:03:40.527Z,22.70
2019-02-18T05:06:10.238Z,23.57
2019-02-18T05:08:40.223Z,23.20
2019-02-18T05:11:09.927Z,21.67
2019-02-18T05:13:41.817Z,22.90
2019-02-18T05:16:11.435Z,21.10
2019-02-18T05:18:42.137Z,24.63
2019-02-18T05:21:12.112Z,23.07
2019-02-18T05:23:42.785Z,23.47
2019-02-18T05:26:13.230Z,20.93
2019-02-18T05:28:43.015Z,21.60
2019-02-18T05:31:12.132Z,22.60
2019-02-18T05:33:42.756Z,24.23
2019-02-18T05:36:11.971Z,22.80
2019-02-18T05:38:41.540Z,25.83
2019-02-18T05:41:10.982Z,23.00
2019-02-18T05:43:39.974Z,22.50
2019-02-18T05:46:09.267Z,24.03
2019-02-18T05:48:39.454Z,22.57
2019-02-18T05:51:10.421Z,21.93
2019-02-18T05:53:40.078Z,24.93
2019-02-18T05:56:09.565Z,23.23
2019-02-18T05:58:38.902Z,23.43
2019-02-18T06:01:08.483Z,24.17
2019-02-18T06:03:37.404Z,24.10
2019-02-18T06:06:07.053Z,23.97
2019-02-18T06:08:36.425Z,24.83
2019-02-18T06:11:07.741Z,23.83
2019-02-18T06:13:37.500Z,23.97
2019-02-18T06:16:07.364Z,23.90
2019-02-18T06:18:36.474Z,23.43
2019-02-18T06:21:06.229Z,23.53
2019-02-18T06:23:35.706Z,24.37
2019-02-18T06:26:05.306Z,23.00
2019-02-18T06:28:34.677Z,23.47
2019-02-18T06:31:04.359Z,24.50
2019-02-18T06:33:33.844Z,24.53
2019-02-18T06:36:02.947Z,23.80
2019-02-18T06:38:32.221Z,23.80
2019-02-18T06:41:01.724Z,22.83
2019-02-18T06:43:31.338Z,26.03
2019-02-18T06:46:05.347Z,24.13
2019-02-18T06:48:39.483Z,24.30
2019-02-18T06:51:09.065Z,22.67
2019-02-18T06:53:38.351Z,24.60
2019-02-18T06:56:08.607Z,27.80
2019-02-18T06:58:39.393Z,23.70
2019-02-18T07:01:26.777Z,25.33
2019-02-18T07:04:00.101Z,25.20
2019-02-18T07:06:31.006Z,26.67
2019-02-18T07:09:02.001Z,24.87
2019-02-18T07:11:32.428Z,27.40
2019-02-18T07:14:02.021Z,25.13
2019-02-18T07:16:31.464Z,24.70
2019-02-18T07:19:00.643Z,26.63
2019-02-18T07:21:30.060Z,25.50
2019-02-18T07:24:00.384Z,24.37
2019-02-18T07:26:30.063Z,26.50
2019-02-18T07:29:00.674Z,26.53
2019-02-18T07:31:30.120Z,24.23
2019-02-18T07:33:59.141Z,23.27
2019-02-18T07:36:28.940Z,26.87
2019-02-18T07:38:58.952Z,27.10
2019-02-18T07:41:29.033Z,26.67
2019-02-18T07:43:58.380Z,26.23
2019-02-18T07:46:28.733Z,27.80
2019-02-18T07:48:58.159Z,24.53
2019-02-18T07:51:29.911Z,26.17
2019-02-18T07:53:59.474Z,29.07
2019-02-18T07:56:29.001Z,26.50
2019-02-18T07:58:58.218Z,26.73
2019-02-18T08:01:28.616Z,27.27
2019-02-18T08:03:57.581Z,28.53
2019-02-18T08:06:26.981Z,27.70
2019-02-18T08:08:56.707Z,36.00
2019-02-18T08:11:26.933Z,30.70
2019-02-18T08:13:56.727Z,29.40
2019-02-18T08:16:26.514Z,30.60
2019-02-18T08:18:56.265Z,30.70
2019-02-18T08:21:25.517Z,30.80
2019-02-18T08:24:00.017Z,30.10
2019-02-18T08:26:25.776Z,29.53
2019-02-18T08:28:55.010Z,30.50
2019-02-18T08:31:24.645Z,30.77
2019-02-18T08:33:54.544Z,30.10
2019-02-18T08:36:23.743Z,33.00
2019-02-18T08:38:53.219Z,30.87
2019-02-18T08:41:22.309Z,32.43
2019-02-18T08:43:52.158Z,30.00
2019-02-18T08:46:21.325Z,30.00
2019-02-18T08:48:50.845Z,30.17
2019-02-18T08:51:20.740Z,29.90
2019-02-18T08:53:50.259Z,30.73
2019-02-18T08:56:19.880Z,30.30
2019-02-18T08:58:49.673Z,31.37
2019-02-18T09:01:19.113Z,30.53
2019-02-18T09:03:48.251Z,30.30
2019-02-18T09:06:17.939Z,29.07
2019-02-18T09:08:48.830Z,28.33
2019-02-18T09:11:18.127Z,30.20
2019-02-18T09:13:47.069Z,30.50
2019-02-18T09:16:16.482Z,28.93
2019-02-18T09:18:45.742Z,31.00
2019-02-18T09:21:14.923Z,30.43
2019-02-18T09:23:45.509Z,31.93
2019-02-18T09:26:16.097Z,29.20
2019-02-18T09:28:45.847Z,29.60
2019-02-18T09:31:15.630Z,26.07
2019-02-18T09:33:45.147Z,29.63
2019-02-18T09:36:14.804Z,27.10
2019-02-18T09:38:44.883Z,29.30
2019-02-18T09:41:14.620Z,26.47
2019-02-18T09:43:44.142Z,26.40
2019-02-18T09:46:13.308Z,27.90
2019-02-18T09:48:42.522Z,27.60
2019-02-18T09:51:11.750Z,28.33
2019-02-18T09:53:40.981Z,28.63
2019-02-18T09:56:10.225Z,26.57
2019-02-18T09:58:39.602Z,29.00
2019-02-18T10:01:08.217Z,28.20
2019-02-18T10:03:38.143Z,27.60
2019-02-18T10:06:07.817Z,26.80
2019-02-18T10:08:37.581Z,26.40
2019-02-18T10:11:06.869Z,26.37
2019-02-18T10:13:36.804Z,28.53
2019-02-18T10:16:06.206Z,27.10
2019-02-18T10:18:35.623Z,28.50
2019-02-18T10:21:05.741Z,26.60
2019-02-18T10:23:35.265Z,25.40
2019-02-18T10:26:04.157Z,24.80
2019-02-18T10:28:35.131Z,24.80
2019-02-18T10:31:05.176Z,24.47
2019-02-18T10:33:34.687Z,23.63
2019-02-18T10:36:04.415Z,23.03
2019-02-18T10:38:33.896Z,22.93
2019-02-18T10:41:06.933Z,23.50
2019-02-18T10:43:33.861Z,23.43
2019-02-18T10:46:02.941Z,23.10
2019-02-18T10:48:33.250Z,23.00
2019-02-18T10:51:03.240Z,23.13
2019-02-18T10:53:32.937Z,21.97
2019-02-18T10:56:02.073Z,20.73
2019-02-18T10:58:32.329Z,21.20
2019-02-18T11:01:02.175Z,19.13
2019-02-18T11:03:31.420Z,21.10
2019-02-18T11:06:00.853Z,20.10
2019-02-18T11:08:30.778Z,21.20
2019-02-18T11:10:59.911Z,19.90
2019-02-18T11:13:29.754Z,17.80
2019-02-18T11:15:59.022Z,18.93
2019-02-18T11:18:27.946Z,21.50
2019-02-18T11:20:57.650Z,21.20
2019-02-18T11:23:27.312Z,20.10
2019-02-18T11:25:57.123Z,18.97
2019-02-18T11:28:26.703Z,23.97
2019-02-18T11:30:56.136Z,22.30
2019-02-18T11:33:25.172Z,21.87
2019-02-18T11:35:55.187Z,20.40
2019-02-18T11:38:24.868Z,19.33
2019-02-18T11:40:53.873Z,15.50
2019-02-18T11:43:23.112Z,15.27
2019-02-18T11:45:53.374Z,15.50
2019-02-18T11:48:23.324Z,16.17
2019-02-18T11:50:53.220Z,15.73
2019-02-18T11:53:22.411Z,14.93
2019-02-18T11:55:52.068Z,15.97
2019-02-18T11:58:22.027Z,16.00
2019-02-18T12:00:51.233Z,14.90
2019-02-18T12:03:20.307Z,14.83
2019-02-18T12:05:49.504Z,15.63
2019-02-18T12:08:19.440Z,16.10
2019-02-18T12:10:48.788Z,15.70
2019-02-18T12:13:18.038Z,17.07
2019-02-18T12:15:47.830Z,16.57
2019-02-18T12:18:16.718Z,15.83
2019-02-18T12:20:46.558Z,16.63
2019-02-18T12:23:17.182Z,16.30
2019-02-18T12:25:46.985Z,16.70
2019-02-18T12:28:16.953Z,15.87
2019-02-18T12:30:46.670Z,16.90
2019-02-18T12:33:15.867Z,17.53
2019-02-18T12:35:45.992Z,16.83
2019-02-18T12:38:17.422Z,17.83
2019-02-18T12:40:46.949Z,15.83
2019-02-18T12:43:16.146Z,16.70
2019-02-18T12:45:45.173Z,15.50
2019-02-18T12:48:14.032Z,14.23
2019-02-18T12:50:44.646Z,16.53
2019-02-18T12:53:13.837Z,16.97
2019-02-18T12:55:43.555Z,15.60
2019-02-18T12:58:13.080Z,16.20
2019-02-18T13:00:42.491Z,15.73
2019-02-18T13:03:12.337Z,15.70
2019-02-18T13:05:42.223Z,16.30
2019-02-18T13:08:11.544Z,15.53
2019-02-18T13:10:42.113Z,15.40
2019-02-18T13:13:12.135Z,16.50
2019-02-18T13:15:41.007Z,15.80
2019-02-18T13:18:10.579Z,13.50
2019-02-18T13:20:40.826Z,13.63
2019-02-18T13:23:11.110Z,12.67
2019-02-18T13:25:47.350Z,12.43
2019-02-18T13:28:11.442Z,11.90
2019-02-18T13:30:40.574Z,13.27
2019-02-18T13:33:10.677Z,11.83
2019-02-18T13:35:40.091Z,13.20
2019-02-18T13:38:09.316Z,12.47
2019-02-18T13:40:38.542Z,13.53
2019-02-18T13:43:08.780Z,13.50
2019-02-18T13:45:38.390Z,13.53
2019-02-18T13:48:07.589Z,15.53
2019-02-18T13:50:37.856Z,17.13
2019-02-18T13:53:07.352Z,15.10
2019-02-18T13:55:37.034Z,15.63
2019-02-18T13:58:08.383Z,16.27
2019-02-18T14:00:38.743Z,16.40
2019-02-18T14:03:08.137Z,16.97
2019-02-18T14:05:37.599Z,17.23
2019-02-18T14:08:07.149Z,18.27
2019-02-18T14:10:36.307Z,16.13
2019-02-18T14:13:05.846Z,15.83
2019-02-18T14:15:35.545Z,16.67
2019-02-18T14:18:04.879Z,16.80
2019-02-18T14:20:33.940Z,16.40
2019-02-18T14:23:03.819Z,15.70
2019-02-18T14:25:32.864Z,16.60
2019-02-18T14:28:02.348Z,14.70
2019-02-18T14:30:31.179Z,15.20
2019-02-18T14:33:00.612Z,14.10
2019-02-18T14:35:30.041Z,14.73
2019-02-18T14:37:59.379Z,13.43
2019-02-18T14:40:28.929Z,13.87
2019-02-18T14:42:58.208Z,14.13
2019-02-18T14:45:27.611Z,13.67
2019-02-18T14:47:57.530Z,13.17
2019-02-18T14:50:27.705Z,12.37
2019-02-18T14:52:57.112Z,12.30
2019-02-18T14:55:26.194Z,12.70
2019-02-18T14:57:56.193Z,13.47
2019-02-18T15:00:25.096Z,12.50
2019-02-18T15:02:56.558Z,12.23
2019-02-18T15:05:27.088Z,12.80
2019-02-18T15:07:56.381Z,12.20
2019-02-18T15:10:26.330Z,11.10
2019-02-18T15:12:55.531Z,11.87
2019-02-18T15:15:24.878Z,12.03
2019-02-18T15:17:54.622Z,11.67
2019-02-18T15:20:24.447Z,12.60
2019-02-18T15:22:53.965Z,10.83
2019-02-18T15:25:23.304Z,12.20
2019-02-18T15:27:53.099Z,12.00
2019-02-18T15:30:22.765Z,11.90
2019-02-18T15:32:52.585Z,11.40
2019-02-18T15:35:22.026Z,12.10
2019-02-18T15:37:51.580Z,11.80
2019-02-18T15:40:21.326Z,11.03
2019-02-18T15:42:50.800Z,11.30
2019-02-18T15:45:20.958Z,11.40
2019-02-18T15:47:50.290Z,11.90
2019-02-18T15:50:19.400Z,11.87
2019-02-18T15:52:48.599Z,12.47
2019-02-18T15:55:17.559Z,11.60
2019-02-18T15:57:47.260Z,12.17
2019-02-18T16:00:22.586Z,12.23
2019-02-18T16:02:52.560Z,12.20
2019-02-18T16:05:22.653Z,10.57
2019-02-18T16:07:51.703Z,12.37
2019-02-18T16:10:22.115Z,11.97
2019-02-18T16:12:51.409Z,11.40
2019-02-18T16:15:20.387Z,11.23
2019-02-18T16:17:49.684Z,11.60
2019-02-18T16:20:18.558Z,15.00
2019-02-18T16:22:48.078Z,11.90
2019-02-18T16:25:22.414Z,12.37
2019-02-18T16:27:52.302Z,11.80
2019-02-18T16:30:22.259Z,11.20
2019-02-18T16:32:52.484Z,10.80
2019-02-18T16:35:21.682Z,10.30
2019-02-18T16:37:51.515Z,10.53
2019-02-18T16:40:21.895Z,10.57
2019-02-18T16:42:59.084Z,12.97
2019-02-18T16:45:23.188Z,11.93
2019-02-18T16:47:52.691Z,11.67
2019-02-18T16:50:21.967Z,11.17
2019-02-18T16:52:52.630Z,12.10
2019-02-18T16:55:22.423Z,11.40
2019-02-18T16:57:52.056Z,22.13
2019-02-18T17:00:27.041Z,17.67
2019-02-18T17:02:56.028Z,14.30
2019-02-18T17:05:25.378Z,14.77
2019-02-18T17:07:54.344Z,14.20
2019-02-18T17:10:23.473Z,13.60
2019-02-18T17:12:52.809Z,12.90
2019-02-18T17:15:22.666Z,11.97
2019-02-18T17:17:52.359Z,12.20
2019-02-18T17:20:21.597Z,13.10
2019-02-18T17:22:50.974Z,12.20
2019-02-18T17:25:20.424Z,12.53
2019-02-18T17:27:49.976Z,12.53
2019-02-18T17:30:19.573Z,12.70
2019-02-18T17:32:49.482Z,13.30
2019-02-18T17:35:18.579Z,13.93
2019-02-18T17:37:47.743Z,13.00
2019-02-18T17:40:17.152Z,12.77
2019-02-18T17:42:47.444Z,13.17
2019-02-18T17:45:20.231Z,12.10
2019-02-18T17:47:49.251Z,11.33
2019-02-18T17:50:19.317Z,11.80
2019-02-18T17:52:48.344Z,12.10
2019-02-18T17:55:18.592Z,13.37
2019-02-18T17:57:48.511Z,20.43
2019-02-18T18:00:21.586Z,18.20
2019-02-18T18:02:50.691Z,17.70
2019-02-18T18:05:19.967Z,16.03
2019-02-18T18:07:49.340Z,16.10
2019-02-18T18:10:19.406Z,17.20
2019-02-18T18:12:48.466Z,15.27
2019-02-18T18:15:19.952Z,14.57
2019-02-18T18:17:49.187Z,15.13
2019-02-18T18:20:18.829Z,14.40
2019-02-18T18:22:48.005Z,15.10
2019-02-18T18:25:17.304Z,15.10
2019-02-18T18:27:46.973Z,16.20
2019-02-18T18:30:17.660Z,16.43
2019-02-18T18:32:46.605Z,13.57
2019-02-18T18:35:16.102Z,14.20
2019-02-18T18:37:45.440Z,13.07
2019-02-18T18:40:20.685Z,13.13
2019-02-18T18:42:50.371Z,12.60
2019-02-18T18:45:19.679Z,14.07
2019-02-18T18:47:48.545Z,15.13
2019-02-18T18:50:20.034Z,15.13
2019-02-18T18:52:48.949Z,17.43
2019-02-18T18:55:17.910Z,16.93
2019-02-18T18:57:47.044Z,17.27
2019-02-18T19:00:20.515Z,19.70
2019-02-18T19:02:49.706Z,18.60
2019-02-18T19:05:18.807Z,19.77
2019-02-18T19:07:48.714Z,20.70
2019-02-18T19:10:18.245Z,19.30
2019-02-18T19:12:47.572Z,19.10
2019-02-18T19:15:17.830Z,19.00
2019-02-18T19:17:47.345Z,19.73
2019-02-18T19:20:16.650Z,18.60
2019-02-18T19:22:45.665Z,19.40
2019-02-18T19:25:14.963Z,19.83
2019-02-18T19:27:44.238Z,20.17
2019-02-18T19:30:25.129Z,18.57
2019-02-18T19:32:54.306Z,19.10
2019-02-18T19:35:24.099Z,25.37
2019-02-18T19:37:53.319Z,20.33
2019-02-18T19:40:22.410Z,21.07
2019-02-18T19:42:51.498Z,19.50
2019-02-18T19:45:22.717Z,20.10
2019-02-18T19:47:52.222Z,20.03
2019-02-18T19:50:21.702Z,18.43
2019-02-18T19:52:51.611Z,18.43
2019-02-18T19:55:20.776Z,17.17
2019-02-18T19:57:50.045Z,16.73
2019-02-18T20:00:20.362Z,15.80
2019-02-18T20:02:49.429Z,16.30
2019-02-18T20:05:19.583Z,15.00
2019-02-18T20:07:49.155Z,15.83
2019-02-18T20:10:18.990Z,14.27
2019-02-18T20:12:49.393Z,15.07
2019-02-18T20:15:18.609Z,14.53
2019-02-18T20:17:48.469Z,12.80
2019-02-18T20:20:18.943Z,13.47
2019-02-18T20:22:48.528Z,13.50
2019-02-18T20:25:17.353Z,14.93
2019-02-18T20:27:46.659Z,14.00
2019-02-18T20:30:17.528Z,12.30
2019-02-18T20:32:46.528Z,12.30
2019-02-18T20:35:15.671Z,11.77
2019-02-18T20:37:45.292Z,11.60
2019-02-18T20:40:14.488Z,11.13
2019-02-18T20:42:44.449Z,11.37
2019-02-18T20:45:14.458Z,11.40
2019-02-18T20:47:43.538Z,20.17
2019-02-18T20:50:14.496Z,26.00
2019-02-18T20:52:43.666Z,16.87
2019-02-18T20:55:16.264Z,13.63
2019-02-18T20:57:45.564Z,10.93
2019-02-18T21:00:20.079Z,10.20
2019-02-18T21:02:49.407Z,10.33
2019-02-18T21:05:19.083Z,9.90
2019-02-18T21:07:48.752Z,10.03
2019-02-18T21:10:19.653Z,10.20
2019-02-18T21:12:49.395Z,9.33
2019-02-18T21:15:18.282Z,10.23
2019-02-18T21:17:47.544Z,9.33
2019-02-18T21:20:16.609Z,9.70
2019-02-18T21:22:46.764Z,9.40
2019-02-18T21:25:15.813Z,8.97
2019-02-18T21:27:45.175Z,8.47
2019-02-18T21:30:17.851Z,8.37
2019-02-18T21:32:47.999Z,9.07
2019-02-18T21:35:17.021Z,8.67
2019-02-18T21:37:47.072Z,9.37
2019-02-18T21:40:16.566Z,9.10
2019-02-18T21:42:45.438Z,7.83
2019-02-18T21:45:16.011Z,10.87
2019-02-18T21:47:45.450Z,8.63
2019-02-18T21:50:14.829Z,8.60
2019-02-18T21:52:43.862Z,13.80
2019-02-18T21:55:13.148Z,10.23
2019-02-18T21:57:41.846Z,10.83
2019-02-18T22:00:18.658Z,9.63
2019-02-18T22:02:48.782Z,12.60
2019-02-18T22:05:18.518Z,12.27
2019-02-18T22:07:47.621Z,15.13
2019-02-18T22:10:16.706Z,13.43
2019-02-18T22:12:46.197Z,11.87
2019-02-18T22:15:15.813Z,12.33
2019-02-18T22:17:44.914Z,11.10
2019-02-18T22:20:14.730Z,9.67
2019-02-18T22:22:43.798Z,10.77
2019-02-18T22:25:13.401Z,12.00
2019-02-18T22:27:42.720Z,12.23
2019-02-18T22:30:16.162Z,14.90
2019-02-18T22:32:45.177Z,12.87
2019-02-18T22:35:14.759Z,13.27
2019-02-18T22:37:44.372Z,12.83
2019-02-18T22:40:14.253Z,13.13
2019-02-18T22:42:43.313Z,13.53
2019-02-18T22:45:13.679Z,13.13
2019-02-18T22:47:42.903Z,12.70
2019-02-18T22:50:13.685Z,12.97
2019-02-18T22:52:43.336Z,11.67
2019-02-18T22:55:12.410Z,12.00
2019-02-18T22:57:41.879Z,11.43
2019-02-18T23:00:14.025Z,11.20
2019-02-18T23:02:44.962Z,10.07
2019-02-18T23:05:14.852Z,9.73
2019-02-18T23:07:43.937Z,9.50
2019-02-18T23:10:13.697Z,10.53
2019-02-18T23:12:42.480Z,10.30
2019-02-18T23:15:11.786Z,9.77
2019-02-18T23:17:41.075Z,10.27
2019-02-18T23:20:10.686Z,9.33
2019-02-18T23:22:39.794Z,10.03
2019-02-18T23:25:09.563Z,9.80
2019-02-18T23:27:38.754Z,9.77
2019-02-18T23:30:09.415Z,10.87
2019-02-18T23:32:38.758Z,9.53
2019-02-18T23:35:07.951Z,11.30
2019-02-18T23:37:37.291Z,9.40
2019-02-18T23:40:06.748Z,10.90
2019-02-18T23:42:36.552Z,9.57
2019-02-18T23:45:05.989Z,9.20
2019-02-18T23:47:35.205Z,8.73
2019-02-18T23:50:05.039Z,8.97
2019-02-18T23:52:34.547Z,9.33
2019-02-18T23:55:03.662Z,8.90
2019-02-18T23:57:33.144Z,7.70
